Latest Weather Observations for Mallacoota

IDV60801

Issued at 8:35 pm EDT Saturday 22 November 2014 (issued every 30 minutes, with the page automatically refreshed every 10 minutes)

About weather observations | Map of weather stations | Latest weather observations for VIC | Other Formats
Station Details ID: 084084 Name: MALLACOOTA Lat: -37.60 Lon: 149.73 Height: 22.0 m
Data from the previous 72 hours. | See also: Recent months at Mallacoota
Date/Time
EDT
Temp
°C
App
Temp
°C
Dew
Point
Rel
Hum
%
Delta-T
°C
Wind Press
QNH
hPa
Press
MSL
hPa
Rain
since 9 am
mm
Dir
 
Spd
km/h
Gust
km/h
Spd
kts
Gust
kts
22/08:30pm 20.4 18.0 14.3 68 3.6 NNW 20 28 11 15 1009.4 - 0.0
22/08:00pm 20.9 18.5 14.5 67 3.7 N 20 30 11 16 1009.3 - 0.0
22/07:30pm 21.5 19.3 14.4 64 4.2 N 19 32 10 17 1009.6 - 0.0
22/07:00pm 22.2 20.5 14.6 62 4.5 N 17 24 9 13 1009.4 - 0.0
22/06:30pm 23.4 21.7 14.7 58 5.2 N 17 24 9 13 1009.2 - 0.0
22/06:00pm 23.8 22.6 13.9 54 5.8 N 13 20 7 11 1008.8 1008.7 0.0
22/05:30pm 24.4 22.2 14.5 54 5.9 N 19 24 10 13 1008.5 - 0.0
22/05:00pm 21.9 21.2 15.3 66 3.9 NNE 13 22 7 12 1009.3 - 0.0
22/04:30pm 21.9 21.3 15.7 68 3.7 NNE 13 24 7 13 1009.4 - 0.0
22/04:00pm 21.6 19.5 14.7 65 4.1 NE 19 24 10 13 1009.8 - 0.0
22/03:30pm 22.2 20.6 15.1 64 4.2 NE 17 28 9 15 1009.9 - 0.0
22/03:00pm 22.7 21.0 15.8 65 4.2 ENE 19 28 10 15 1010.2 1010.1 0.0
22/02:30pm 22.4 21.3 16.4 69 3.6 ENE 17 24 9 13 1010.5 - 0.0
22/02:00pm 23.3 22.2 16.4 65 4.2 ENE 17 22 9 12 1010.5 - 0.0
22/01:30pm 26.1 25.1 15.5 52 6.4 NNE 15 19 8 10 1010.7 - 0.0
22/01:00pm 26.3 25.9 17.1 57 5.7 NNE 15 22 8 12 1010.9 - 0.0
22/12:30pm 25.5 24.3 16.1 56 5.8 NNE 17 26 9 14 1011.1 - 0.0
22/12:00pm 24.7 23.2 16.2 59 5.2 NNE 19 30 10 16 1011.4 1011.3 0.0
22/11:30am 23.2 21.0 15.0 60 4.9 NNE 20 28 11 15 1011.6 - 0.0
22/11:00am 22.7 20.6 15.3 63 4.4 NNE 20 28 11 15 1012.0 - 0.0
22/10:30am 21.9 18.8 14.5 63 4.3 NNE 24 41 13 22 1012.2 - 0.0
22/10:00am 21.5 20.1 14.6 65 4.1 N 15 24 8 13 1012.6 - 0.0
22/09:30am 19.9 16.9 13.6 67 3.6 N 22 33 12 18 1012.9 - 0.0
22/09:00am 19.4 16.8 13.8 70 3.2 N 20 35 11 19 1013.3 1013.2 0.0
22/08:30am 18.0 14.5 13.5 75 2.6 N 24 35 13 19 1013.3 - 0.0
22/08:00am 17.3 15.7 14.0 81 1.9 N 15 26 8 14 1013.6 - 0.0
22/07:30am 15.7 14.3 13.4 86 1.3 N 13 19 7 10 1013.5 - 0.0
22/07:00am 12.6 10.8 10.8 89 0.9 NNW 11 17 6 9 1013.6 - 0.0
22/06:30am 11.9 8.8 10.3 90 0.8 NNW 17 20 9 11 1013.4 - 0.0
22/06:00am 10.7 7.8 9.5 92 0.6 NNW 15 17 8 9 1013.5 1013.4 0.0
22/05:30am 10.3 7.6 9.1 92 0.6 NNW 13 19 7 10 1013.4 - 0.0
22/05:00am 9.7 6.5 8.5 92 0.6 NW 15 19 8 10 1013.3 - 0.0
22/04:30am 9.5 7.7 8.1 91 0.7 WNW 7 9 4 5 1013.2 - 0.0
22/04:00am 10.1 7.7 8.7 91 0.7 WNW 11 13 6 7 1013.5 - 0.0
22/03:30am 10.7 8.0 9.1 90 0.8 NW 13 17 7 9 1013.7 - 0.0
22/03:00am 10.7 8.9 9.3 91 0.7 WNW 9 13 5 7 1013.7 1013.6 0.0
22/02:30am 10.7 8.5 9.3 91 0.7 NW 11 15 6 8 1014.0 - 0.0
22/02:00am 10.6 8.7 9.2 91 0.7 NW 9 15 5 8 1014.3 - 0.0
22/01:30am 10.3 9.6 8.7 90 0.8 NNW 2 6 1 3 1014.5 - 0.0
22/01:00am 10.9 9.4 9.2 89 0.8 WNW 7 9 4 5 1014.7 - 0.0
22/12:30am 11.3 9.5 9.6 89 0.9 W 9 9 5 5 1014.7 - 0.0
22/12:00am 11.4 9.6 9.5 88 1.0 NW 9 11 5 6 1015.1 1015.0 0.0
 
Date/Time
EDT
Temp
°C
App
Temp
°C
Dew
Point
Rel
Hum
%
Delta-T
°C
Wind Press
QNH
hPa
Press
MSL
hPa
Rain
since 9 am
mm
Dir
 
Spd
km/h
Gust
km/h
Spd
kts
Gust
kts
21/11:30pm 12.1 10.8 10.0 87 1.1 WNW 7 11 4 6 1014.9 - 0.0
21/11:00pm 12.4 10.8 10.3 87 1.1 NW 9 15 5 8 1015.0 - 0.0
21/10:30pm 12.4 11.1 9.8 84 1.3 WNW 7 9 4 5 1014.8 - 0.0
21/10:00pm 13.1 11.8 10.1 82 1.5 NW 7 11 4 6 1014.9 - 0.0
21/09:30pm 13.5 12.3 10.3 81 1.7 NW 7 11 4 6 1014.6 - 0.0
21/09:00pm 14.0 13.2 9.8 76 2.2 WNW 4 7 2 4 1014.2 1014.1 0.0
21/08:30pm 14.9 14.2 10.1 73 2.5 SW 4 9 2 5 1013.7 - 0.0
21/08:00pm 15.3 13.3 10.3 72 2.6 SW 11 17 6 9 1013.1 - 0.0
21/07:30pm 15.9 13.6 10.4 70 2.9 SSW 13 22 7 12 1012.5 - 0.0
21/07:00pm 16.6 13.0 10.5 67 3.2 SW 20 32 11 17 1011.8 - 0.0
21/06:30pm 17.2 12.9 10.6 65 3.5 SSW 24 37 13 20 1011.2 - 0.0
21/06:00pm 17.7 13.6 11.3 66 3.5 SSW 24 43 13 23 1010.8 1010.7 0.0
21/05:30pm 18.7 16.1 12.0 65 3.7 SSW 17 26 9 14 1010.2 - 0.0
21/05:00pm 18.4 15.4 11.9 66 3.6 SW 19 33 10 18 1010.1 - 0.0
21/04:30pm 17.6 15.1 12.3 71 2.9 SW 17 26 9 14 1010.0 - 0.0
21/04:00pm 18.4 15.4 12.6 69 3.2 SW 20 37 11 20 1009.6 - 0.0
21/03:30pm 18.2 15.2 12.4 69 3.2 SW 20 32 11 17 1009.5 - 0.0
21/03:00pm 18.0 14.9 12.2 69 3.2 SW 20 37 11 20 1009.4 1009.3 0.0
21/02:30pm 18.9 15.6 12.9 68 3.4 SW 22 35 12 19 1009.1 - 0.0
21/02:00pm 18.5 15.1 12.5 68 3.3 SW 22 39 12 21 1009.1 - 0.0
21/01:30pm 19.1 15.1 13.1 68 3.4 SW 26 39 14 21 1008.8 - 0.0
21/01:00pm 20.5 15.9 13.5 64 4.0 SSW 30 46 16 25 1008.5 - 0.0
21/12:30pm 20.5 15.7 13.0 62 4.3 SSW 30 52 16 28 1008.5 - 0.0
21/12:00pm 20.7 16.7 14.1 66 3.8 SW 28 48 15 26 1008.7 1008.6 0.0
21/11:37am 21.4 17.1 14.3 64 4.1 SSW 30 54 16 29 1008.2 - 0.0
21/11:30am 21.6 17.7 14.3 63 4.3 SSW 28 43 15 23 1007.9 - 0.0
21/11:00am 22.9 20.2 15.5 63 4.4 SSW 24 33 13 18 1007.2 - 0.0
21/10:30am 23.5 20.4 15.5 60 4.8 SSW 26 35 14 19 1007.2 - 0.0
21/10:00am 24.6 22.0 15.0 55 5.8 SSW 22 35 12 19 1006.7 - 0.0
21/09:30am 23.8 22.2 15.0 57 5.3 SW 17 28 9 15 1006.6 - 0.0
21/09:00am 23.5 21.1 14.5 57 5.3 SW 20 32 11 17 1006.5 1006.4 0.0
21/08:30am 23.9 22.4 14.3 55 5.7 SW 15 22 8 12 1006.1 - 0.0
21/08:00am 24.1 22.9 13.9 53 6.0 WSW 13 20 7 11 1005.9 - 0.0
21/07:30am 22.3 21.6 14.4 61 4.6 WSW 11 20 6 11 1005.7 - 0.0
21/07:00am 20.2 19.6 14.6 70 3.3 WNW 11 17 6 9 1004.7 - 0.0
21/06:30am 19.1 18.3 14.1 73 2.9 NW 11 19 6 10 1004.1 - 0.0
21/06:00am 19.0 17.4 13.8 72 3.0 NNW 15 22 8 12 1003.6 1003.5 0.0
21/05:30am 19.0 17.1 14.1 73 2.8 NNW 17 24 9 13 1003.2 - 0.0
21/05:00am 18.4 18.6 14.1 76 2.5 NNW 6 13 3 7 1003.4 - 0.0
21/04:30am 18.8 18.2 14.5 76 2.5 N 11 17 6 9 1003.4 - 0.0
21/04:00am 18.6 16.8 14.5 77 2.4 N 17 20 9 11 1003.8 - 0.0
21/03:30am 18.6 17.1 14.3 76 2.5 N 15 19 8 10 1005.1 - 0.0
21/03:00am 18.3 17.9 14.2 77 2.4 NNW 9 13 5 7 1006.2 1006.1 0.0
21/02:30am 18.0 17.6 14.1 78 2.2 NW 9 11 5 6 1006.7 - 0.0
21/02:00am 18.5 18.5 14.2 76 2.5 WNW 7 9 4 5 1007.0 - 0.0
21/01:30am 18.1 18.4 14.4 79 2.1 NW 6 9 3 5 1006.9 - 0.0
21/01:00am 18.3 18.6 14.4 78 2.2 WNW 6 9 3 5 1007.6 - 0.0
21/12:30am 18.5 19.8 14.0 75 2.6 CALM 0 0 0 0 1008.0 - 0.0
21/12:00am 19.2 20.5 14.0 72 3.0 CALM 0 0 0 0 1008.1 1008.0 0.0
 
Date/Time
EDT
Temp
°C
App
Temp
°C
Dew
Point
Rel
Hum
%
Delta-T
°C
Wind Press
QNH
hPa
Press
MSL
hPa
Rain
since 9 am
mm
Dir
 
Spd
km/h
Gust
km/h
Spd
kts
Gust
kts
20/11:30pm 19.6 19.8 14.2 71 3.1 W 6 9 3 5 1008.7 - 0.0
20/11:00pm 19.8 19.4 14.0 69 3.3 WSW 9 13 5 7 1008.7 - 0.0
20/10:30pm 20.2 17.7 13.6 66 3.8 SSW 19 26 10 14 1008.5 - 0.0
20/10:00pm 21.0 17.8 13.2 61 4.5 SSW 22 33 12 18 1008.5 - 0.0
20/09:30pm 21.4 17.9 12.3 56 5.1 SSW 22 35 12 19 1008.0 - 0.0
20/09:00pm 22.8 19.7 12.1 51 6.1 SSW 20 32 11 17 1007.4 1007.3 0.0
20/08:30pm 23.8 22.4 9.4 40 7.8 W 7 11 4 6 1007.1 - 0.0
20/08:00pm 25.8 23.8 8.8 34 9.2 W 9 17 5 9 1006.6 - 0.0
20/07:30pm 25.0 23.4 10.1 39 8.2 NW 9 13 5 7 1006.3 - 0.0
20/07:00pm 24.3 23.7 12.3 47 6.9 NNW 7 9 4 5 1005.9 - 0.0
20/06:30pm 24.8 24.7 14.0 51 6.4 NW 7 11 4 6 1005.4 - 0.0
20/06:00pm 24.1 24.6 15.1 57 5.4 N 6 9 3 5 1005.2 1005.1 0.0
20/05:30pm 24.3 23.8 13.8 52 6.2 NE 9 13 5 7 1004.9 - 0.0
20/05:00pm 24.6 23.7 13.8 51 6.3 NNE 11 15 6 8 1004.8 - 0.0
20/04:30pm 23.7 22.4 13.6 53 5.9 NE 13 19 7 10 1004.9 - 0.0
20/04:00pm 24.3 24.9 15.2 57 5.5 NNE 6 9 3 5 1005.1 - 0.0
20/03:30pm 24.3 23.1 14.1 53 6.0 ENE 13 20 7 11 1005.5 - 0.0
20/03:00pm 24.0 23.7 14.4 55 5.7 NE 9 15 5 8 1006.0 1005.9 0.0
20/02:30pm 26.7 25.3 14.5 47 7.3 ENE 15 22 8 12 1006.4 - 0.0
20/02:00pm 24.1 22.5 13.9 53 6.0 ENE 15 22 8 12 1006.5 - 0.0
20/01:30pm 25.0 24.3 15.3 55 5.8 E 13 20 7 11 1006.8 - 0.0
20/01:00pm 24.2 24.4 15.7 59 5.1 E 9 13 5 7 1007.0 - 0.0
20/12:30pm 29.0 26.6 10.2 31 10.6 N 13 22 7 12 1007.3 - 0.0
20/12:00pm 28.4 26.9 11.9 36 9.6 N 11 17 6 9 1007.7 1007.6 0.0
20/11:30am 28.1 27.2 13.6 41 8.6 N 11 15 6 8 1008.2 - 0.0
20/11:00am 26.8 25.7 12.1 40 8.5 NNW 9 15 5 8 1008.6 - 0.0
20/10:30am 26.4 24.6 12.1 41 8.2 NNW 13 19 7 10 1009.0 - 0.0
20/10:00am 25.1 23.1 12.7 46 7.2 NNW 15 20 8 11 1009.2 - 0.0
20/09:30am 24.5 22.6 11.8 45 7.2 NNW 13 19 7 10 1009.6 - 0.0
20/09:00am 23.1 21.3 12.1 50 6.2 NNW 13 20 7 11 1010.2 1010.1 0.0
20/08:30am 21.3 19.0 11.9 55 5.3 NNW 15 22 8 12 1010.4 - 0.0
20/08:00am 19.5 17.7 13.2 67 3.6 NNW 15 20 8 11 1010.4 - 0.0
20/07:30am 18.3 16.5 13.4 73 2.8 NNW 15 22 8 12 1010.3 - 0.0
20/07:00am 16.7 15.2 14.2 85 1.4 NW 15 22 8 12 1010.6 - 0.0
20/06:30am 15.8 13.8 14.0 89 1.0 NW 17 24 9 13 1010.4 - 0.0
20/06:00am 15.8 13.5 14.2 90 0.9 NNW 19 26 10 14 1010.3 1010.2 0.0
20/05:30am 16.0 14.2 14.5 91 0.9 NW 17 24 9 13 1010.4 - 0.0
20/05:00am 15.8 14.4 14.5 92 0.7 NNW 15 22 8 12 1010.3 - 0.0
20/04:30am 15.5 14.8 14.2 92 0.7 NNW 11 17 6 9 1010.5 - 0.0
20/04:00am 15.5 14.8 14.2 92 0.7 N 11 17 6 9 1010.8 - 0.0
20/03:30am 15.2 14.4 13.9 92 0.7 N 11 15 6 8 1011.3 - 0.0
20/03:00am 15.1 14.6 13.8 92 0.7 NNW 9 9 5 5 1011.8 1011.7 0.0
20/02:30am 15.3 15.2 13.8 91 0.8 NNW 7 9 4 5 1012.0 - 0.0
20/02:00am 14.9 14.7 13.1 89 1.0 NNW 6 7 3 4 1012.4 - 0.0
20/01:30am 15.8 15.8 13.6 87 1.2 N 6 9 3 5 1012.8 - 0.0
20/01:00am 17.0 16.4 14.6 86 1.4 NNE 11 17 6 9 1013.2 - 0.0
20/12:30am 16.9 16.5 14.2 84 1.5 N 9 13 5 7 1013.8 - 0.0
20/12:00am 17.4 16.4 14.7 84 1.6 N 13 19 7 10 1014.0 1013.9 0.0
 
Date/Time
EDT
Temp
°C
App
Temp
°C
Dew
Point
Rel
Hum
%
Delta-T
°C
Wind Press
QNH
hPa
Press
MSL
hPa
Rain
since 9 am
mm
Dir
 
Spd
km/h
Gust
km/h
Spd
kts
Gust
kts
19/11:30pm 17.5 15.8 14.6 83 1.7 N 17 24 9 13 1014.1 - 0.0
19/11:00pm 17.5 16.1 14.6 83 1.7 N 15 22 8 12 1014.0 - 0.0
19/10:30pm 17.6 16.3 14.9 84 1.6 N 15 28 8 15 1014.5 - 0.0
19/10:00pm 17.5 16.6 14.8 84 1.6 N 13 19 7 10 1014.6 - 0.0
19/09:30pm 17.7 16.0 14.8 83 1.7 N 17 24 9 13 1014.7 - 0.0
19/09:00pm 17.8 16.5 14.7 82 1.8 N 15 24 8 13 1014.7 1014.6 0.0

Other Formats:

Comma delimited format used in spreadsheet applications
http://www.bom.gov.au/fwo/IDV60801/IDV60801.94935.axf

JavaScript Object Notation format (JSON) in row-major order
http://www.bom.gov.au/fwo/IDV60801/IDV60801.94935.json